Time;durP1;ratioP1;P1;durP2;ratioP2;P2;SDS_P1;SDS_P2;PMS_P1;PMS_P2;Temp;Humidity;BMP_temperature;BMP_pressure;BME280_temperature;BME280_humidity;BME280_pressure;Samples;Min_cycle;Max_cycle;Signal;HPM_P1;HPM_P2
2022/12/26 00:02:02;;;;;;;8.90;8.00;;;;;;;4.52;100.00;97076.78;5025308;28;20535;-72
2022/12/26 00:04:30;;;;;;;9.00;8.20;;;;;;;4.46;100.00;97074.78;4991397;28;20690;-71
2022/12/26 00:07:19;;;;;;;9.67;8.63;;;;;;;4.45;100.00;97078.38;5027193;28;20293;-70
2022/12/26 00:09:47;;;;;;;8.67;7.97;;;;;;;4.46;100.00;97075.56;5029330;28;20196;-69
2022/12/26 00:12:14;;;;;;;8.60;7.90;;;;;;;4.45;100.00;97083.63;5016737;28;20223;-70
2022/12/26 00:14:42;;;;;;;8.97;8.17;;;;;;;4.43;100.00;97082.94;5026921;28;20227;-68
2022/12/26 00:17:09;;;;;;;10.70;8.67;;;;;;;4.47;100.00;97071.16;5023740;28;20481;-70
2022/12/26 00:19:37;;;;;;;9.37;8.20;;;;;;;4.38;100.00;97078.13;4991393;28;20208;-68
2022/12/26 00:22:05;;;;;;;8.97;8.27;;;;;;;4.40;100.00;97080.63;5021573;28;20196;-72
2022/12/26 00:24:34;;;;;;;9.30;8.40;;;;;;;4.41;100.00;97077.81;5030375;28;21165;-70
2022/12/26 00:27:01;;;;;;;9.23;8.43;;;;;;;4.46;100.00;97080.81;5012267;28;20257;-71
2022/12/26 00:29:29;;;;;;;9.93;9.00;;;;;;;4.53;100.00;97095.97;5028747;28;20358;-72
2022/12/26 00:31:56;;;;;;;10.23;8.40;;;;;;;4.54;100.00;97077.47;5026696;28;20866;-71
2022/12/26 00:34:24;;;;;;;10.93;8.50;;;;;;;4.56;100.00;97074.72;5028981;28;20542;-71
2022/12/26 00:36:52;;;;;;;9.87;8.87;;;;;;;4.56;100.00;97078.16;4983192;28;20435;-72
2022/12/26 00:39:19;;;;;;;10.07;9.13;;;;;;;4.58;100.00;97075.38;5029143;28;20212;-71
2022/12/26 00:41:48;;;;;;;9.93;9.13;;;;;;;4.62;100.00;97069.69;5026625;28;20562;-69
2022/12/26 00:44:16;;;;;;;10.23;9.33;;;;;;;4.69;100.00;97075.16;5016156;28;20223;-71
2022/12/26 00:46:43;;;;;;;10.10;9.00;;;;;;;4.70;100.00;97076.81;5022926;28;20243;-68
2022/12/26 00:49:11;;;;;;;9.63;8.83;;;;;;;4.73;100.00;97083.53;5027778;28;20208;-72
2022/12/26 00:51:39;;;;;;;10.50;9.20;;;;;;;4.72;100.00;97082.72;4980848;28;20591;-70
2022/12/26 00:54:06;;;;;;;9.33;8.53;;;;;;;4.73;100.00;97088.78;5026869;28;20322;-71
2022/12/26 00:56:34;;;;;;;10.07;9.07;;;;;;;4.71;100.00;97082.88;5030637;28;20224;-69
2022/12/26 00:59:03;;;;;;;9.50;8.73;;;;;;;4.71;100.00;97083.72;5013146;28;20401;-71
2022/12/26 01:01:31;;;;;;;9.07;8.17;;;;;;;4.74;100.00;97093.91;5026453;28;20199;-71
2022/12/26 01:03:59;;;;;;;9.40;8.70;;;;;;;4.73;100.00;97083.53;5027604;28;20657;-70
2022/12/26 01:06:27;;;;;;;10.20;9.20;;;;;;;4.73;100.00;97086.16;4989807;28;20650;-71
2022/12/26 01:08:55;;;;;;;10.23;9.33;;;;;;;4.76;100.00;97086.72;5025856;28;20215;-70
2022/12/26 01:14:07;;;;;;;10.37;9.57;;;;;;;4.77;100.00;97105.94;5012445;28;20874;-69
2022/12/26 01:16:34;;;;;;;11.33;9.27;;;;;;;4.80;100.00;97110.03;5023414;28;20350;-70
2022/12/26 01:19:02;;;;;;;9.70;8.73;;;;;;;4.84;100.00;97103.50;5028690;28;20214;-71
2022/12/26 01:21:29;;;;;;;9.73;8.73;;;;;;;4.84;100.00;97099.09;4983838;28;21448;-70
2022/12/26 01:23:57;;;;;;;9.90;8.97;;;;;;;4.82;100.00;97103.66;5024075;28;20208;-70
2022/12/26 01:26:24;;;;;;;9.30;8.50;;;;;;;4.86;100.00;97106.81;5025131;28;20417;-70
2022/12/26 01:28:53;;;;;;;9.20;8.40;;;;;;;4.84;100.00;97117.47;5027061;28;20808;-70
2022/12/26 01:31:22;;;;;;;9.50;8.60;;;;;;;4.87;100.00;97111.91;5004842;28;20302;-68
2022/12/26 01:33:50;;;;;;;10.03;8.57;;;;;;;4.89;100.00;97115.22;5028961;28;20215;-69
2022/12/26 01:36:19;;;;;;;9.50;8.53;;;;;;;4.89;100.00;97107.34;4993578;28;20227;-70
2022/12/26 01:38:47;;;;;;;10.27;8.27;;;;;;;4.90;100.00;97108.16;5023128;28;20205;-69
2022/12/26 01:41:18;;;;;;;9.23;8.43;;;;;;;4.90;100.00;97098.50;5026171;28;20294;-70
2022/12/26 01:43:53;;;;;;;9.17;8.13;;;;;;;4.84;100.00;97093.84;5027695;28;20203;-68
2022/12/26 01:46:25;;;;;;;9.43;8.43;;;;;;;4.83;100.00;97105.31;5007053;28;20878;-69
2022/12/26 01:48:53;;;;;;;8.80;8.10;;;;;;;4.78;100.00;97099.69;5027919;28;20239;-72
2022/12/26 01:51:24;;;;;;;9.00;8.23;;;;;;;4.80;100.00;97108.25;5022936;28;20307;-70
2022/12/26 01:53:55;;;;;;;8.87;8.17;;;;;;;4.75;100.00;97108.69;4991773;28;20215;-69
2022/12/26 01:56:45;;;;;;;8.90;8.00;;;;;;;4.74;100.00;97112.28;4982868;28;20231;-70
2022/12/26 01:59:15;;;;;;;8.40;7.70;;;;;;;4.69;100.00;97116.31;5023552;28;20328;-69
2022/12/26 02:01:45;;;;;;;9.37;8.50;;;;;;;4.67;100.00;97099.91;5027280;28;20238;-71
2022/12/26 02:07:03;;;;;;;9.50;8.47;;;;;;;4.67;100.00;97108.59;5005319;28;20254;-70
2022/12/26 02:09:31;;;;;;;8.00;7.47;;;;;;;4.69;100.00;97117.16;5023636;28;20207;-70
2022/12/26 02:12:01;;;;;;;8.87;8.03;;;;;;;4.67;100.00;97124.34;4978668;28;20591;-70
2022/12/26 02:14:50;;;;;;;8.80;8.10;;;;;;;4.64;100.00;97111.53;5021175;28;20395;-70
2022/12/26 02:17:18;;;;;;;10.93;8.53;;;;;;;4.69;100.00;97104.03;5024178;28;20258;-68
2022/12/26 02:19:53;;;;;;;9.13;8.33;;;;;;;4.77;100.00;97116.41;5028241;28;20208;-69
2022/12/26 02:22:35;;;;;;;8.90;8.10;;;;;;;4.73;100.00;97110.63;5022156;28;20212;-70
2022/12/26 02:25:23;;;;;;;8.60;7.90;;;;;;;4.69;100.00;97104.03;5026321;28;20452;-68
2022/12/26 02:28:27;;;;;;;8.30;7.70;;;;;;;4.68;100.00;97091.88;4988588;28;20273;-68
2022/12/26 02:30:58;;;;;;;9.00;8.23;;;;;;;4.67;100.00;97087.59;5019919;28;21249;-68
2022/12/26 02:33:39;;;;;;;9.13;8.23;;;;;;;4.68;100.00;97085.78;5008974;28;21008;-69
2022/12/26 02:36:17;;;;;;;9.87;8.53;;;;;;;4.67;100.00;97092.03;5023267;28;20204;-68
2022/12/26 02:38:55;;;;;;;8.87;8.07;;;;;;;4.62;100.00;97092.47;5023141;28;20200;-70
2022/12/26 02:41:26;;;;;;;8.80;8.07;;;;;;;4.67;100.00;97086.78;5013732;28;20516;-70
2022/12/26 02:47:01;;;;;;;8.57;7.90;;;;;;;4.67;100.00;97085.00;4962252;28;20414;-69
2022/12/26 02:47:03;;;;;;;8.67;7.83;;;;;;;4.70;100.00;97087.31;5003621;28;21469;-69
2022/12/26 03:15:06;;;;;;;8.20;7.47;;;;;;;4.76;100.00;97052.59;4930998;28;20636;-68
2022/12/26 03:17:35;;;;;;;8.87;8.13;;;;;;;4.72;100.00;97066.16;5014582;28;20223;-72
2022/12/26 03:20:09;;;;;;;8.60;7.90;;;;;;;4.78;100.00;97062.94;5014849;28;20255;-69
2022/12/26 03:22:39;;;;;;;8.57;7.87;;;;;;;4.79;100.00;97072.47;5031051;28;20207;-72
2022/12/26 03:27:55;;;;;;;9.47;8.47;;;;;;;4.78;100.00;97068.19;5027499;28;20223;-70
2022/12/26 03:34:16;;;;;;;10.43;8.07;;;;;;;4.77;100.00;97077.84;5025416;28;20223;-69
2022/12/26 03:35:57;;;;;;;8.97;8.27;;;;;;;4.74;100.00;97070.28;5029847;28;20199;-69
2022/12/26 03:38:28;;;;;;;8.30;7.50;;;;;;;4.71;100.00;97072.38;5028082;28;20204;-69
2022/12/26 04:20:42;;;;;;;8.67;7.73;;;;;;;4.90;100.00;97082.75;4989547;28;20259;-69
2022/12/26 04:46:07;;;;;;;7.97;6.87;;;;;;;5.19;100.00;97096.59;5027516;28;20446;-69
2022/12/26 04:51:27;;;;;;;8.50;7.77;;;;;;;5.18;100.00;97095.78;4986990;28;20587;-70
2022/12/26 04:53:54;;;;;;;8.10;7.33;;;;;;;5.19;100.00;97102.69;5027006;28;20219;-69
2022/12/26 04:56:22;;;;;;;9.03;8.23;;;;;;;5.24;100.00;97104.84;5009250;28;20270;-69
2022/12/26 04:58:51;;;;;;;8.43;7.50;;;;;;;5.22;100.00;97098.91;5029285;28;20199;-70
2022/12/26 05:09:35;;;;;;;8.00;7.37;;;;;;;5.26;100.00;97075.81;5029605;28;20686;-70
2022/12/26 05:12:04;;;;;;;8.87;8.07;;;;;;;5.22;100.00;97086.63;5028387;28;20212;-71
2022/12/26 05:14:34;;;;;;;9.03;8.23;;;;;;;5.22;100.00;97089.25;5031654;28;20223;-70
2022/12/26 05:30:58;;;;;;;9.20;7.80;;;;;;;5.20;100.00;97085.94;5011491;28;20932;-69
2022/12/26 05:36:11;;;;;;;8.37;7.57;;;;;;;5.22;100.00;97091.88;5024589;28;20191;-71
2022/12/26 05:38:38;;;;;;;8.13;7.40;;;;;;;5.17;100.00;97095.91;4976207;28;20238;-68
2022/12/26 05:41:06;;;;;;;7.60;6.87;;;;;;;5.14;100.00;97096.22;5026400;28;20194;-71
2022/12/26 05:43:33;;;;;;;8.50;7.80;;;;;;;5.11;100.00;97105.22;5031121;28;20207;-71
2022/12/26 05:46:02;;;;;;;7.77;7.23;;;;;;;5.12;100.00;97104.28;5025166;28;20837;-68
2022/12/26 05:48:30;;;;;;;8.40;7.60;;;;;;;5.11;100.00;97101.78;5012797;28;21098;-72
2022/12/26 05:50:58;;;;;;;8.90;7.73;;;;;;;5.13;100.00;97108.53;5022756;28;20199;-68
2022/12/26 05:53:26;;;;;;;8.23;7.63;;;;;;;5.10;100.00;97108.81;4988857;28;20212;-71
2022/12/26 05:55:54;;;;;;;8.88;8.18;;;;;;;5.05;100.00;97098.78;5023968;28;20458;-70
2022/12/26 05:58:21;;;;;;;9.57;8.47;;;;;;;5.08;100.00;97105.53;5012859;28;20223;-71
2022/12/26 06:00:49;;;;;;;8.93;8.07;;;;;;;5.07;100.00;97109.13;5024031;28;20671;-69
2022/12/26 06:03:18;;;;;;;8.87;8.17;;;;;;;5.07;100.00;97106.50;5028351;28;20203;-71
2022/12/26 06:05:45;;;;;;;8.70;7.70;;;;;;;5.05;100.00;97108.47;5030432;28;20211;-69
2022/12/26 06:08:13;;;;;;;9.10;8.17;;;;;;;5.05;100.00;97109.28;5024113;28;20232;-71
2022/12/26 06:10:40;;;;;;;8.37;7.63;;;;;;;5.06;100.00;97107.47;4991900;28;20211;-71
2022/12/26 06:13:08;;;;;;;9.37;8.00;;;;;;;5.07;100.00;97104.72;4967314;28;20746;-70
2022/12/26 06:15:38;;;;;;;9.63;8.73;;;;;;;5.07;100.00;97094.22;4999251;28;20220;-71
2022/12/26 06:18:05;;;;;;;8.70;8.00;;;;;;;5.04;100.00;97088.41;5029597;28;20226;-71
2022/12/26 06:20:34;;;;;;;8.80;8.00;;;;;;;5.04;100.00;97099.78;4992402;28;20714;-69
2022/12/26 06:23:02;;;;;;;8.97;8.17;;;;;;;5.03;100.00;97098.13;5024121;28;20235;-70
2022/12/26 06:25:29;;;;;;;8.53;7.83;;;;;;;5.05;100.00;97106.66;5021495;28;20203;-70
2022/12/26 06:27:57;;;;;;;8.10;7.50;;;;;;;5.03;100.00;97110.41;4991266;28;20235;-71
2022/12/26 06:30:24;;;;;;;7.50;6.90;;;;;;;4.96;100.00;97114.63;5019802;28;20203;-70
2022/12/26 06:32:52;;;;;;;8.33;7.53;;;;;;;4.96;100.00;97115.44;5002836;28;20210;-68
2022/12/26 06:35:20;;;;;;;8.00;7.40;;;;;;;4.93;100.00;97128.88;5008783;28;20719;-70
2022/12/26 06:37:48;;;;;;;8.97;8.20;;;;;;;4.91;100.00;97115.06;5005525;28;20236;-71
2022/12/26 06:40:16;;;;;;;8.23;7.43;;;;;;;4.89;100.00;97111.75;5027672;28;20211;-69
2022/12/26 06:42:44;;;;;;;8.97;7.77;;;;;;;4.87;100.00;97101.41;4995205;28;20254;-71
2022/12/26 06:45:11;;;;;;;8.43;7.50;;;;;;;4.84;100.00;97106.13;5018950;28;20200;-69
2022/12/26 06:47:39;;;;;;;7.90;7.30;;;;;;;4.84;100.00;97104.34;5015385;28;20253;-71
2022/12/26 06:50:07;;;;;;;8.73;7.90;;;;;;;4.81;100.00;97099.41;4993931;28;20223;-70
2022/12/26 06:52:34;;;;;;;11.00;8.30;;;;;;;4.78;100.00;97095.25;5011495;28;20212;-71
2022/12/26 06:55:04;;;;;;;10.70;7.83;;;;;;;4.78;100.00;97095.25;5028423;28;20223;-70
2022/12/26 06:57:31;;;;;;;9.17;8.40;;;;;;;4.81;100.00;97094.16;4993931;28;20460;-71
2022/12/26 06:59:59;;;;;;;8.57;7.90;;;;;;;4.83;100.00;97096.59;5021751;28;20204;-70
2022/12/26 07:02:26;;;;;;;7.70;7.00;;;;;;;4.87;100.00;97097.94;5024934;28;20210;-70
2022/12/26 07:04:54;;;;;;;7.80;7.17;;;;;;;4.87;100.00;97096.16;4994540;28;20211;-70
2022/12/26 07:07:21;;;;;;;8.93;8.23;;;;;;;4.86;100.00;97096.31;5007772;28;20887;-68
2022/12/26 07:09:49;;;;;;;8.13;7.33;;;;;;;4.88;100.00;97091.72;5012330;28;20211;-69
2022/12/26 07:12:20;;;;;;;7.90;7.20;;;;;;;4.87;100.00;97087.44;5022623;28;20247;-68
2022/12/26 07:14:48;;;;;;;7.77;6.97;;;;;;;4.88;100.00;97084.69;4991804;28;20223;-70
2022/12/26 07:17:15;;;;;;;8.30;7.60;;;;;;;4.87;100.00;97077.78;5001512;28;20239;-71
2022/12/26 07:19:43;;;;;;;8.50;7.73;;;;;;;4.86;100.00;97081.38;5027607;28;20717;-71
2022/12/26 07:22:11;;;;;;;9.63;8.77;;;;;;;4.83;100.00;97070.34;5007063;28;20210;-68
2022/12/26 07:24:38;;;;;;;8.73;7.93;;;;;;;4.82;100.00;97082.66;5018767;28;20203;-70
2022/12/26 07:27:06;;;;;;;9.43;7.97;;;;;;;4.85;100.00;97098.13;5028450;28;20260;-68
2022/12/26 07:29:35;;;;;;;8.47;7.70;;;;;;;4.89;100.00;97102.09;4993977;28;20204;-71
2022/12/26 07:32:02;;;;;;;8.60;7.83;;;;;;;4.96;100.00;97104.13;5024395;28;20203;-69
2022/12/26 07:34:30;;;;;;;8.53;7.80;;;;;;;4.99;100.00;97103.81;5027043;28;20219;-72
2022/12/26 07:36:58;;;;;;;8.33;6.93;;;;;;;5.01;100.00;97104.47;5009834;28;20219;-71
2022/12/26 07:39:26;;;;;;;8.67;7.87;;;;;;;5.04;100.00;97105.03;5010572;28;20475;-68
2022/12/26 07:42:00;;;;;;;7.73;7.03;;;;;;;5.03;100.00;97102.53;5026651;28;20203;-69
2022/12/26 07:44:29;;;;;;;7.83;7.13;;;;;;;5.01;100.00;97112.34;4991623;28;20214;-72
2022/12/26 07:46:58;;;;;;;7.97;7.30;;;;;;;4.96;100.00;97106.75;5024054;28;20585;-69
2022/12/26 07:49:26;;;;;;;8.43;7.70;;;;;;;4.97;100.00;97113.63;5027728;28;20817;-71
2022/12/26 07:51:54;;;;;;;7.83;7.17;;;;;;;4.95;100.00;97118.22;4992925;28;20223;-68
2022/12/26 07:54:22;;;;;;;9.18;8.38;;;;;;;4.96;100.00;97115.44;5010809;28;20574;-70
2022/12/26 07:56:50;;;;;;;8.93;8.07;;;;;;;4.96;100.00;97112.00;5022322;28;20236;-68
2022/12/26 07:59:17;;;;;;;8.93;8.13;;;;;;;4.93;100.00;97108.69;4962098;28;21659;-71
2022/12/26 08:01:45;;;;;;;8.00;7.40;;;;;;;4.99;100.00;97116.94;5022267;28;20203;-68
2022/12/26 08:04:14;;;;;;;8.70;8.00;;;;;;;5.03;100.00;97116.50;5025483;28;20342;-72
2022/12/26 08:06:42;;;;;;;8.23;7.43;;;;;;;5.04;100.00;97115.53;5019641;28;20901;-70
2022/12/26 08:09:14;;;;;;;8.47;7.67;;;;;;;5.06;100.00;97115.34;4997427;28;20301;-73
2022/12/26 08:11:42;;;;;;;7.40;6.90;;;;;;;5.03;100.00;97124.38;5013272;28;20212;-70
2022/12/26 08:14:11;;;;;;;8.30;7.63;;;;;;;5.05;100.00;97137.34;4984711;28;22200;-71
2022/12/26 08:16:38;;;;;;;7.87;7.20;;;;;;;5.05;100.00;97142.59;5025342;28;20223;-71
2022/12/26 08:19:06;;;;;;;9.17;8.27;;;;;;;5.02;100.00;97140.28;4969926;28;20215;-69
2022/12/26 08:21:35;;;;;;;8.33;7.70;;;;;;;5.03;100.00;97129.63;4997679;28;20211;-69
2022/12/26 08:24:03;;;;;;;9.40;7.57;;;;;;;5.03;100.00;97128.78;5021122;28;20207;-72
2022/12/26 08:26:30;;;;;;;8.47;7.83;;;;;;;5.02;100.00;97130.59;5010721;28;20410;-68
2022/12/26 08:28:58;;;;;;;8.43;7.63;;;;;;;5.04;100.00;97130.44;5028645;28;20388;-71
2022/12/26 08:31:26;;;;;;;8.87;8.00;;;;;;;5.06;100.00;97134.59;5028267;28;20215;-69
2022/12/26 08:33:55;;;;;;;10.10;8.10;;;;;;;5.07;100.00;97136.22;4983328;28;20833;-70
2022/12/26 08:36:23;;;;;;;8.27;7.50;;;;;;;5.14;100.00;97136.47;5023497;28;20249;-71
2022/12/26 08:38:52;;;;;;;8.67;7.97;;;;;;;5.14;100.00;97135.63;5025570;28;20425;-70
2022/12/26 08:41:20;;;;;;;8.40;7.53;;;;;;;5.19;100.00;97131.56;5022747;28;20229;-71
2022/12/26 08:43:49;;;;;;;8.13;7.43;;;;;;;5.20;100.00;97149.00;5009750;28;20216;-69
2022/12/26 08:46:36;;;;;;;10.87;9.77;;;;;;;5.21;100.00;97150.63;5023420;28;20293;-69
2022/12/26 08:49:04;;;;;;;8.33;7.63;;;;;;;5.24;100.00;97149.50;5023362;28;20498;-70
2022/12/26 08:51:32;;;;;;;7.83;7.00;;;;;;;5.25;100.00;97155.59;4986532;28;20292;-69
2022/12/26 08:54:01;;;;;;;8.07;7.33;;;;;;;5.27;100.00;97156.25;5028586;28;20199;-71
2022/12/26 08:56:29;;;;;;;7.90;7.30;;;;;;;5.31;100.00;97162.88;5025634;28;20219;-70
2022/12/26 08:58:57;;;;;;;8.83;8.07;;;;;;;5.33;100.00;97158.28;5024783;28;20405;-71
2022/12/26 09:01:26;;;;;;;8.23;7.43;;;;;;;5.38;100.00;97148.13;5021048;28;20556;-68
2022/12/26 09:03:54;;;;;;;8.67;7.77;;;;;;;5.47;100.00;97147.22;5028341;28;20442;-69
2022/12/26 09:06:22;;;;;;;8.80;7.83;;;;;;;5.50;100.00;97146.09;4978941;28;20229;-72
2022/12/26 09:08:50;;;;;;;8.80;8.17;;;;;;;5.52;100.00;97136.25;5028043;28;20333;-70
2022/12/26 09:11:21;;;;;;;8.70;7.87;;;;;;;5.54;100.00;97138.75;5030163;28;20242;-71
2022/12/26 09:13:49;;;;;;;10.43;9.13;;;;;;;5.53;100.00;97139.72;5027066;28;20294;-71
2022/12/26 09:16:18;;;;;;;9.63;8.73;;;;;;;5.53;100.00;97132.66;5025890;28;20509;-70
2022/12/26 09:18:47;;;;;;;8.97;8.20;;;;;;;5.52;100.00;97138.88;5028247;28;20549;-70
2022/12/26 09:21:16;;;;;;;8.47;7.67;;;;;;;5.59;100.00;97136.47;4983373;28;20361;-70
2022/12/26 09:23:43;;;;;;;8.07;7.27;;;;;;;5.61;100.00;97137.16;5020999;28;20710;-70
2022/12/26 09:26:13;;;;;;;7.83;7.23;;;;;;;5.68;100.00;97126.81;5026345;28;20207;-71
2022/12/26 09:28:42;;;;;;;7.83;7.17;;;;;;;5.67;100.00;97125.19;5024550;28;20196;-71
2022/12/26 09:31:12;;;;;;;8.43;7.70;;;;;;;5.70;100.00;97125.72;5023230;28;20208;-70
2022/12/26 09:33:40;;;;;;;7.60;6.90;;;;;;;5.73;100.00;97132.47;5006333;28;20267;-71
2022/12/26 09:36:11;;;;;;;8.83;8.10;;;;;;;5.73;100.00;97140.34;5026951;28;20227;-69
2022/12/26 09:38:41;;;;;;;8.40;7.60;;;;;;;5.72;100.00;97138.72;4980392;28;20216;-71
2022/12/26 09:41:21;;;;;;;7.87;7.20;;;;;;;5.68;100.00;97138.19;5027683;28;20579;-70
2022/12/26 09:44:01;;;;;;;7.87;7.23;;;;;;;5.62;100.00;97155.38;5026695;28;20722;-71
2022/12/26 09:46:32;;;;;;;8.50;7.70;;;;;;;5.61;100.00;97156.34;5022031;28;20238;-69
2022/12/26 09:49:03;;;;;;;7.67;7.07;;;;;;;5.60;100.00;97156.53;5028592;28;20302;-71
2022/12/26 09:51:32;;;;;;;8.20;7.50;;;;;;;5.60;100.00;97161.78;5024214;28;20563;-69
2022/12/26 09:54:01;;;;;;;10.27;7.93;;;;;;;5.55;100.00;97156.16;4986040;28;20219;-70
2022/12/26 09:56:30;;;;;;;7.47;6.87;;;;;;;5.54;100.00;97172.91;5024020;28;20227;-68
2022/12/26 09:59:20;;;;;;;8.20;7.50;;;;;;;5.56;100.00;97160.44;5027525;28;20590;-71
2022/12/26 10:01:47;;;;;;;7.90;7.13;;;;;;;5.46;100.00;97161.34;5018906;28;20357;-70
2022/12/26 10:04:21;;;;;;;9.47;8.57;;;;;;;5.45;100.00;97167.56;5028463;28;20306;-70
2022/12/26 10:07:02;;;;;;;12.80;9.43;;;;;;;5.36;100.00;97157.97;5023860;28;20246;-71
2022/12/26 10:09:40;;;;;;;8.77;8.03;;;;;;;5.31;100.00;97147.94;4982917;28;20216;-69
2022/12/26 10:12:18;;;;;;;10.13;8.03;;;;;;;5.31;100.00;97147.09;5024375;28;20335;-71
2022/12/26 10:14:53;;;;;;;8.57;7.83;;;;;;;5.33;100.00;97153.03;5027433;28;20218;-70
2022/12/26 10:17:26;;;;;;;8.40;7.60;;;;;;;5.25;100.00;97160.84;5024165;28;20231;-73
2022/12/26 10:20:06;;;;;;;8.70;7.90;;;;;;;5.26;100.00;97147.53;5025953;28;20230;-71
2022/12/26 10:22:54;;;;;;;13.23;8.20;;;;;;;5.26;100.00;97144.09;5022425;28;20207;-69
2022/12/26 10:25:24;;;;;;;9.10;8.20;;;;;;;5.22;100.00;97146.19;4981726;28;20214;-70
2022/12/26 10:28:01;;;;;;;9.83;8.83;;;;;;;5.19;100.00;97147.34;4950424;28;20234;-69
2022/12/26 10:30:34;;;;;;;10.03;8.77;;;;;;;5.19;100.00;97139.47;5008881;28;20602;-69
2022/12/26 10:33:14;;;;;;;9.30;8.40;;;;;;;5.17;100.00;97149.28;5025645;28;20227;-70
2022/12/26 10:35:43;;;;;;;10.57;9.27;;;;;;;5.17;100.00;97151.91;5002334;28;20235;-68
2022/12/26 10:38:15;;;;;;;10.00;9.10;;;;;;;5.18;100.00;97153.56;5024806;28;20665;-71
2022/12/26 10:40:44;;;;;;;9.57;8.73;;;;;;;5.13;100.00;97137.44;5020489;28;20211;-71
2022/12/26 10:43:21;;;;;;;21.30;19.13;;;;;;;5.16;100.00;97136.28;4979490;28;20219;-71
2022/12/26 10:45:55;;;;;;;10.13;9.20;;;;;;;5.17;100.00;97156.34;5017531;28;20200;-71
2022/12/26 10:48:25;;;;;;;13.33;11.60;;;;;;;5.05;100.00;97146.06;5019711;28;20499;-72
2022/12/26 10:50:52;;;;;;;17.73;15.87;;;;;;;5.12;100.00;97154.19;5005425;28;20204;-71
2022/12/26 10:53:20;;;;;;;13.17;11.40;;;;;;;5.12;100.00;97137.56;5023581;28;20215;-72
2022/12/26 10:55:48;;;;;;;11.17;10.07;;;;;;;5.12;100.00;97129.69;5020462;28;20418;-71
2022/12/26 10:58:17;;;;;;;9.87;9.07;;;;;;;5.15;100.00;97132.03;4984099;28;20357;-71
2022/12/26 11:00:45;;;;;;;11.10;9.97;;;;;;;5.22;100.00;97139.16;5019493;28;20196;-71
2022/12/26 11:03:16;;;;;;;10.87;9.77;;;;;;;5.20;100.00;97135.84;5020071;28;20201;-70
2022/12/26 11:05:46;;;;;;;13.60;9.97;;;;;;;5.24;100.00;97132.94;5005609;28;20318;-71
2022/12/26 11:08:37;;;;;;;9.53;8.70;;;;;;;5.24;100.00;97135.56;5021927;28;20757;-71
2022/12/26 11:11:13;;;;;;;10.50;9.60;;;;;;;5.22;100.00;97130.44;5025625;28;20214;-70
2022/12/26 11:13:46;;;;;;;11.53;10.53;;;;;;;5.28;100.00;97136.91;4977253;28;20210;-66
2022/12/26 11:16:23;;;;;;;11.10;10.10;;;;;;;5.30;100.00;97127.06;5021764;28;20221;-71
2022/12/26 11:18:53;;;;;;;11.03;9.93;;;;;;;5.33;100.00;97129.38;5021739;28;20203;-70
2022/12/26 11:21:23;;;;;;;11.07;10.17;;;;;;;5.33;100.00;97127.59;5011484;28;20638;-71
2022/12/26 11:23:51;;;;;;;11.70;10.43;;;;;;;5.38;100.00;97134.19;5028436;28;20765;-68
2022/12/26 11:26:22;;;;;;;10.47;9.53;;;;;;;5.44;100.00;97142.28;5001973;28;20232;-71
2022/12/26 11:29:05;;;;;;;11.33;10.27;;;;;;;5.53;100.00;97156.31;4972451;28;21364;-71
2022/12/26 11:31:33;;;;;;;11.83;10.63;;;;;;;5.57;100.00;97172.59;5013294;28;20725;-69
2022/12/26 11:34:07;;;;;;;11.67;10.47;;;;;;;5.68;100.00;97182.03;5033578;28;20308;-71
2022/12/26 11:36:36;;;;;;;10.67;9.70;;;;;;;5.74;100.00;97176.19;5011984;28;22201;-69
2022/12/26 11:39:07;;;;;;;11.43;10.47;;;;;;;5.74;100.00;97179.63;5033001;28;20196;-71
2022/12/26 11:41:38;;;;;;;13.43;11.27;;;;;;;5.72;100.00;97181.59;5029237;28;21399;-69
2022/12/26 11:44:17;;;;;;;11.90;10.70;;;;;;;5.74;100.00;97181.44;4988551;28;20635;-73
2022/12/26 11:46:48;;;;;;;11.57;10.57;;;;;;;5.65;100.00;97188.44;5023961;28;20388;-71
2022/12/26 11:49:22;;;;;;;11.63;10.53;;;;;;;5.61;100.00;97190.53;5029784;28;20610;-68
2022/12/26 11:51:51;;;;;;;12.17;11.07;;;;;;;5.63;100.00;97206.16;5002354;28;20806;-69
2022/12/26 11:54:36;;;;;;;13.80;10.70;;;;;;;5.72;100.00;97228.09;5030792;28;20219;-69
2022/12/26 11:57:12;;;;;;;12.47;11.37;;;;;;;5.83;100.00;97211.22;5028156;28;20335;-72
2022/12/26 11:59:39;;;;;;;13.07;11.83;;;;;;;5.93;100.00;97209.34;4976748;28;20227;-69
2022/12/26 12:02:19;;;;;;;13.73;12.33;;;;;;;5.89;100.00;97205.38;5020862;28;20208;-69
2022/12/26 12:04:49;;;;;;;13.40;12.10;;;;;;;5.78;100.00;97206.44;5020672;28;20211;-71
2022/12/26 12:07:26;;;;;;;11.97;10.87;;;;;;;5.85;100.00;97211.91;5027382;28;20717;-70
2022/12/26 12:10:01;;;;;;;11.97;10.80;;;;;;;6.00;100.00;97193.75;5018598;28;20395;-71
2022/12/26 12:12:32;;;;;;;10.63;9.73;;;;;;;6.03;100.00;97185.59;5027332;28;20195;-70
2022/12/26 12:15:05;;;;;;;10.47;9.57;;;;;;;6.17;100.00;97194.72;4983776;28;20523;-72
2022/12/26 12:17:38;;;;;;;9.87;8.97;;;;;;;6.30;100.00;97192.50;5025517;28;20242;-70
2022/12/26 12:20:29;;;;;;;9.50;7.53;;;;;;;6.42;100.00;97198.28;5032599;28;20709;-70
2022/12/26 12:23:07;;;;;;;8.10;7.40;;;;;;;6.55;100.00;97208.41;5010114;28;20516;-70
2022/12/26 12:25:50;;;;;;;7.27;6.63;;;;;;;6.55;100.00;97202.31;5025841;28;20210;-70
2022/12/26 12:28:33;;;;;;;7.37;6.77;;;;;;;6.53;100.00;97183.22;5026039;28;20587;-70
2022/12/26 12:31:06;;;;;;;7.20;6.53;;;;;;;6.58;100.00;97187.03;4970626;28;20208;-70
2022/12/26 12:33:44;;;;;;;8.43;7.73;;;;;;;6.65;100.00;97190.69;5020178;28;20199;-69
2022/12/26 12:36:17;;;;;;;7.90;7.30;;;;;;;6.65;100.00;97182.78;4969328;28;20219;-69
2022/12/26 12:38:53;;;;;;;8.93;8.23;;;;;;;6.56;100.00;97178.47;5029604;28;20783;-71
2022/12/26 12:41:45;;;;;;;8.20;7.40;;;;;;;6.48;100.00;97173.16;5013210;28;20292;-71
2022/12/26 12:44:15;;;;;;;8.40;7.67;;;;;;;6.42;100.00;97166.72;5025561;28;20538;-70
2022/12/26 12:46:51;;;;;;;8.23;7.47;;;;;;;6.32;100.00;97158.97;5029459;28;20227;-71
2022/12/26 12:49:38;;;;;;;8.40;7.67;;;;;;;6.34;100.00;97154.38;4984326;28;20807;-69
2022/12/26 12:52:15;;;;;;;8.43;7.73;;;;;;;6.42;100.00;97158.81;5021959;28;20608;-71
2022/12/26 12:55:05;;;;;;;10.03;9.00;;;;;;;6.40;100.00;97165.25;5030742;28;20485;-71
2022/12/26 12:57:36;;;;;;;9.70;8.70;;;;;;;6.46;100.00;97172.50;5011552;28;20606;-71
2022/12/26 13:00:13;;;;;;;10.57;9.67;;;;;;;6.61;100.00;97165.63;5026670;28;20349;-73
2022/12/26 13:02:43;;;;;;;10.43;9.27;;;;;;;6.58;100.00;97155.44;5030534;28;20214;-72
2022/12/26 13:05:22;;;;;;;10.23;9.27;;;;;;;6.56;100.00;97157.41;4988847;28;20402;-76
2022/12/26 13:07:54;;;;;;;9.93;9.03;;;;;;;6.53;100.00;97152.44;5021235;28;20255;-72
2022/12/26 13:10:25;;;;;;;10.27;9.47;;;;;;;6.54;100.00;97156.72;5030185;28;20208;-71
2022/12/26 13:12:52;;;;;;;12.23;10.93;;;;;;;6.50;100.00;97158.03;5012022;28;20614;-72
2022/12/26 13:15:28;;;;;;;13.43;11.67;;;;;;;6.59;100.00;97154.44;5027873;28;20214;-72
2022/12/26 13:18:00;;;;;;;14.27;12.97;;;;;;;6.48;100.00;97137.16;5026051;28;20227;-71
2022/12/26 13:20:32;;;;;;;13.83;12.43;;;;;;;6.48;100.00;97144.22;4981538;28;20207;-69
2022/12/26 13:26:02;;;;;;;12.03;10.93;;;;;;;6.60;100.00;97164.00;5028217;28;20210;-71
2022/12/26 13:28:36;;;;;;;11.73;10.73;;;;;;;6.59;100.00;97180.78;5011826;28;20699;-70
2022/12/26 13:31:04;;;;;;;11.40;10.27;;;;;;;6.64;100.00;97181.16;5022132;28;20531;-71
2022/12/26 13:33:31;;;;;;;10.90;9.90;;;;;;;6.71;100.00;97183.94;5025835;28;20608;-70
2022/12/26 13:36:01;;;;;;;10.83;9.80;;;;;;;6.74;100.00;97186.25;4978755;28;20203;-69
2022/12/26 13:39:04;;;;;;;10.87;9.97;;;;;;;6.78;100.00;97195.47;5023708;28;20230;-70
2022/12/26 13:44:26;;;;;;;11.53;10.50;;;;;;;6.78;100.00;97205.22;5011458;28;20887;-70
2022/12/26 13:46:56;;;;;;;10.83;9.70;;;;;;;6.83;100.00;97191.56;5024865;28;20246;-71
2022/12/26 13:49:35;;;;;;;10.77;9.43;;;;;;;6.91;100.00;97188.97;5028053;28;20203;-69
2022/12/26 13:52:29;;;;;;;9.03;8.13;;;;;;;6.99;100.00;97183.72;4961688;28;20255;-70
2022/12/26 13:55:30;;;;;;;9.20;6.73;;;;;;;7.08;100.00;97188.00;5025537;28;20230;-70
2022/12/26 13:58:22;;;;;;;6.27;5.67;;;;;;;7.15;100.00;97134.66;5012170;28;20231;-70
2022/12/26 14:00:50;;;;;;;7.57;6.87;;;;;;;7.14;100.00;97144.38;5028151;28;20399;-69
2022/12/26 14:03:41;;;;;;;7.97;7.27;;;;;;;6.99;100.00;97159.16;5020569;28;20534;-71